Decoded Metar for KUNU (JUNEAU in WI, USA) (IATA:UNU) | Meteo·Mobile Aviation Weather
aviador You're here:

KUNU Decoded Metar

JUNEAU in WI, USA
Report Time2019-09-21 09:35:00
UTC Time2019-09-21 09:32:17
Flight Rules vfr VFR
Wind160° at 04 kt
W.Decomp.*RWY 20: 3.1 kt HW 2.5 kt LCW
RWY 08: 0.6 kt HW 4.0 kt RCW
Visibility9999 m
Phenomena:N/A
Clouds:N/A
Expected CloudBase > 400 ft AGL from Temp-Dew spread
CeilingNone
Temp20°C (ISA +7)
Dew Point19°C (94% RH)
QNH1018 hPa
Density Alt1,864 ft
Elevation935 ft
Report Wrong Elevation
Raw Report
KUNU 210935Z AUTO 16004KT 10SM CLR 20/19 A3007 RMK AO2 T02000188
TSNO=

Extra information for KUNU:More info

Metar Taf Metar & Taf Last 4 Metars F.Rules Stats Wind Profile Meteogram Temp Stats Airport Information Weather charts Add Link Nearby VenuesMetar ALERT Operation Metar Decoded Social comments

AIRNAV info for KUNU